Westerlo, Belgium
Current Conditions -  °F | °C
As of 7:25 PM on Friday 21 Nov 2014 (Local Time) from EBDT Reporting Station
Overcast Overcast  
Wind Chill: 43°   Ceiling: 1700
Heat Index: 43°   Visibility: 5mi
Dew Point: 39°   Wind: 3mph
Humidity: 87%   Direction: 70°ENE
Pressure: 30.09"   Gusts: NA
Location:  51.09°N, 4.92°E
Report Text: EBDT 211825Z AUTO 07003KT 8000 OVC017/// 06/04 Q1019 WHT
Loading
Personal Weather Stations






























Interactive Weather Map New forecast layout! Learn more

10-Day Weather Forecast

Advertisements
Track Severe Weather on mobile